Home   Weather   Kostrzyn nad Odrą   Past weeks
Flag for Poland

Past Weather in Kostrzyn nad Odrą, Poland — July 2015

Currently: 33 °F. Overcast. (Weather station: Gorzow Wlkp, Poland). See more current weather

July 2015 Weather in Kostrzyn nad Odrą — Graph

°F

High & Low Weather Summary for July 2015

 TemperatureHumidityPressure
High93 °F (Jul 4, 5:00 pm)99% (Jul 15, 6:00 am)30.34 "Hg (Jul 15, 6:00 am)
Low46 °F (Jul 11, 6:00 am)20% (Jul 3, 4:00 pm)29.56 "Hg (Jul 25, 5:00 pm)
Average67 °F64%29.94 "Hg
* Reported Jul 1 12:00 am — Jul 31 11:00 pm, Kostrzyn nad Odrą. Weather by CustomWeather, © 2022

Note: Actual official high and low records may vary slightly from our data, if they occured in-between our weather recording intervals... More about our weather records

Kostrzyn nad Odrą Weather History for July 1, 2015

Scroll right to see more
 ConditionsComfort  
Time TempWeatherWind HumidityBarometerVisibility
12:00 am
Wed, Jul 1
59 °FPassing clouds.2 mph77%30.22 "Hg31 mi
1:00 am58 °FPassing clouds.1 mph79%30.22 "Hg25 mi
2:00 am56 °FPassing clouds.1 mph84%30.22 "Hg25 mi
3:00 am54 °FClear.2 mph88%30.23 "Hg25 mi
4:00 am53 °FPassing clouds.2 mph89%30.24 "Hg19 mi
5:00 am53 °FPassing clouds.2 mph90%30.24 "Hg19 mi
6:00 am54 °FSunny.1 mph87%30.26 "Hg19 mi
7:00 am58 °FSunny.1 mph81%30.26 "Hg25 mi
8:00 am62 °FSunny.2 mph69%30.26 "Hg25 mi
9:00 am66 °FSunny.2 mph57%30.27 "Hg25 mi
10:00 am67 °FPassing clouds.2 mph51%30.27 "Hg25 mi
11:00 am70 °FPassing clouds.3 mph48%30.27 "Hg25 mi
12:00 pm71 °FPassing clouds.2 mph46%30.27 "Hg25 mi
1:00 pm73 °FPassing clouds.2 mph43%30.25 "Hg25 mi
2:00 pm75 °FPassing clouds.3 mph39%30.24 "Hg28 mi
3:00 pm76 °FPassing clouds.3 mph34%30.24 "Hg28 mi
4:00 pm78 °FPassing clouds.2 mph33%30.23 "Hg28 mi
5:00 pm79 °FPassing clouds.3 mph31%30.22 "Hg28 mi
6:00 pm79 °FPassing clouds.3 mph29%30.21 "Hg28 mi
7:00 pm79 °FSunny.2 mph32%30.21 "Hg28 mi
8:00 pm76 °FSunny.2 mph37%30.22 "Hg31 mi
9:00 pm72 °FSunny.1 mph49%30.23 "Hg31 mi
10:00 pm69 °FClear.1 mph48%30.25 "Hg31 mi
Weather by CustomWeather, © 2022

See weather overview